createdAt,value
2019-04-26T00:01:58.327Z,11.30
2019-04-26T00:04:31.743Z,11.30
2019-04-26T00:07:03.349Z,11.30
2019-04-26T00:09:36.145Z,11.30
2019-04-26T00:12:27.656Z,11.30
2019-04-26T00:14:58.703Z,11.30
2019-04-26T00:17:36.736Z,11.20
2019-04-26T00:20:07.265Z,11.20
2019-04-26T00:22:36.017Z,11.20
2019-04-26T00:25:06.604Z,11.10
2019-04-26T00:27:37.439Z,11.10
2019-04-26T00:30:07.398Z,11.00
2019-04-26T00:32:36.323Z,11.00
2019-04-26T00:35:07.269Z,11.00
2019-04-26T00:37:36.119Z,11.00
2019-04-26T00:40:06.098Z,11.00
2019-04-26T00:42:35.078Z,11.00
2019-04-26T00:45:12.495Z,11.00
2019-04-26T00:47:42.229Z,11.00
2019-04-26T00:50:13.780Z,10.90
2019-04-26T00:52:43.970Z,10.90
2019-04-26T00:55:14.162Z,10.90
2019-04-26T00:57:45.330Z,10.90
2019-04-26T01:00:18.226Z,10.90
2019-04-26T01:02:50.543Z,10.90
2019-04-26T01:05:19.637Z,10.80
2019-04-26T01:07:51.107Z,10.80
2019-04-26T01:10:21.648Z,10.90
2019-04-26T01:12:51.587Z,10.80
2019-04-26T01:15:22.006Z,10.90
2019-04-26T01:17:52.914Z,10.90
2019-04-26T01:20:22.939Z,10.90
2019-04-26T01:22:54.019Z,10.90
2019-04-26T01:25:28.954Z,10.90
2019-04-26T01:28:03.662Z,10.90
2019-04-26T01:30:35.058Z,10.90
2019-04-26T01:33:03.790Z,10.80
2019-04-26T01:35:32.770Z,10.80
2019-04-26T01:38:02.124Z,10.80
2019-04-26T01:40:33.529Z,10.80
2019-04-26T01:43:05.437Z,10.80
2019-04-26T01:45:38.212Z,10.80
2019-04-26T01:48:11.628Z,10.80
2019-04-26T01:50:40.455Z,10.80
2019-04-26T01:53:09.165Z,10.80
2019-04-26T01:55:37.891Z,10.80
2019-04-26T01:58:06.678Z,10.80
2019-04-26T02:00:37.133Z,10.80
2019-04-26T02:03:17.003Z,10.70
2019-04-26T02:05:45.855Z,10.70
2019-04-26T02:08:14.582Z,10.60
2019-04-26T02:10:43.605Z,10.50
2019-04-26T02:13:12.501Z,10.40
2019-04-26T02:15:45.518Z,10.50
2019-04-26T02:18:20.396Z,10.40
2019-04-26T02:21:07.265Z,10.40
2019-04-26T02:23:37.762Z,10.40
2019-04-26T02:26:25.552Z,10.40
2019-04-26T02:28:55.374Z,10.40
2019-04-26T02:31:27.357Z,10.40
2019-04-26T02:33:58.208Z,10.30
2019-04-26T02:36:45.265Z,10.30
2019-04-26T02:38:57.431Z,10.30
2019-04-26T02:41:31.079Z,10.30
2019-04-26T02:44:00.091Z,10.20
2019-04-26T02:46:40.750Z,10.30
2019-04-26T02:49:31.253Z,10.40
2019-04-26T02:52:03.425Z,10.50
2019-04-26T02:54:47.339Z,10.40
2019-04-26T02:57:22.137Z,10.30
2019-04-26T03:00:05.954Z,10.20
2019-04-26T03:02:37.308Z,10.20
2019-04-26T03:05:06.680Z,10.10
2019-04-26T03:07:49.402Z,10.10
2019-04-26T03:10:18.396Z,10.10
2019-04-26T03:12:47.435Z,10.10
2019-04-26T03:15:22.744Z,10.10
2019-04-26T03:17:59.996Z,10.10
2019-04-26T03:20:36.252Z,10.10
2019-04-26T03:23:41.000Z,10.20
2019-04-26T03:26:04.166Z,10.20
2019-04-26T03:28:42.053Z,10.10
2019-04-26T03:31:23.683Z,10.20
2019-04-26T03:34:17.526Z,10.20
2019-04-26T03:37:23.123Z,10.20
2019-04-26T03:40:23.842Z,10.10
2019-04-26T03:43:13.852Z,10.20
2019-04-26T03:45:58.511Z,10.20
2019-04-26T03:48:54.209Z,10.10
2019-04-26T03:51:43.044Z,10.10
2019-04-26T03:54:22.904Z,10.00
2019-04-26T03:57:24.456Z,10.00
2019-04-26T04:00:01.564Z,9.90
2019-04-26T04:02:39.259Z,9.90
2019-04-26T04:05:33.585Z,9.80
2019-04-26T04:08:03.477Z,9.70
2019-04-26T04:10:41.999Z,9.70
2019-04-26T04:13:16.923Z,9.70
2019-04-26T04:15:51.333Z,9.60
2019-04-26T04:18:27.734Z,9.70
2019-04-26T04:21:19.663Z,9.60
2019-04-26T04:24:01.853Z,9.70
2019-04-26T04:26:48.759Z,9.70
2019-04-26T04:29:42.683Z,9.70
2019-04-26T04:32:18.371Z,9.70
2019-04-26T04:34:52.759Z,9.70
2019-04-26T04:37:22.100Z,9.80
2019-04-26T04:40:27.688Z,9.80
2019-04-26T04:43:05.204Z,9.80
2019-04-26T04:46:02.742Z,9.70
2019-04-26T04:49:15.670Z,9.60
2019-04-26T04:52:11.522Z,9.70
2019-04-26T04:54:45.002Z,9.70
2019-04-26T04:57:37.737Z,9.70
2019-04-26T05:00:17.585Z,9.70
2019-04-26T05:02:58.155Z,9.70
2019-04-26T05:06:07.678Z,9.80
2019-04-26T05:09:01.071Z,9.80
2019-04-26T05:11:49.700Z,9.80
2019-04-26T05:14:25.583Z,9.80
2019-04-26T05:17:31.473Z,9.90
2019-04-26T05:20:09.256Z,9.90
2019-04-26T05:23:08.781Z,10.00
2019-04-26T05:26:33.788Z,10.10
2019-04-26T05:29:34.035Z,10.10
2019-04-26T05:32:37.572Z,10.10
2019-04-26T05:35:42.271Z,10.00
2019-04-26T05:38:37.841Z,9.90
2019-04-26T05:41:48.615Z,9.90
2019-04-26T05:44:42.712Z,9.80
2019-04-26T05:47:28.078Z,9.90
2019-04-26T05:50:18.317Z,9.80
2019-04-26T05:53:06.899Z,9.90
2019-04-26T05:55:40.365Z,9.90
2019-04-26T05:58:46.073Z,9.90
2019-04-26T06:01:34.715Z,9.90
2019-04-26T06:04:29.517Z,9.90
2019-04-26T06:07:29.448Z,9.90
2019-04-26T06:10:20.724Z,10.00
2019-04-26T06:13:19.352Z,10.10
2019-04-26T06:16:14.936Z,10.20
2019-04-26T06:18:57.331Z,10.20
2019-04-26T06:21:32.203Z,10.40
2019-04-26T06:24:27.485Z,10.40
2019-04-26T06:27:13.359Z,10.40
2019-04-26T06:29:53.841Z,10.60
2019-04-26T06:32:56.221Z,10.60
2019-04-26T06:35:20.295Z,10.60
2019-04-26T06:38:06.387Z,10.80
2019-04-26T06:40:57.946Z,10.90
2019-04-26T06:43:34.123Z,10.90
2019-04-26T06:46:34.520Z,11.00
2019-04-26T06:49:21.855Z,11.00
2019-04-26T06:52:08.655Z,11.20
2019-04-26T06:54:59.721Z,11.20
2019-04-26T06:58:00.984Z,11.20
2019-04-26T07:00:34.560Z,11.30
2019-04-26T07:03:07.750Z,11.50
2019-04-26T07:05:44.900Z,11.50
2019-04-26T07:08:23.206Z,11.70
2019-04-26T07:11:15.414Z,11.70
2019-04-26T07:13:59.184Z,11.70
2019-04-26T07:16:47.171Z,11.80
2019-04-26T07:19:59.635Z,12.00
2019-04-26T07:23:13.337Z,12.10
2019-04-26T07:26:15.149Z,12.00
2019-04-26T07:28:55.598Z,12.30
2019-04-26T07:31:33.515Z,12.40
2019-04-26T07:34:21.669Z,12.30
2019-04-26T07:36:51.278Z,12.40
2019-04-26T07:39:45.355Z,12.50
2019-04-26T07:42:50.632Z,12.60
2019-04-26T07:45:41.149Z,12.70
2019-04-26T07:48:18.479Z,13.00
2019-04-26T07:51:23.972Z,13.00
2019-04-26T07:54:21.612Z,13.20
2019-04-26T07:56:59.236Z,13.30
2019-04-26T07:59:33.947Z,13.30
2019-04-26T08:02:21.353Z,13.50
2019-04-26T08:04:53.295Z,13.70
2019-04-26T08:07:24.912Z,13.60
2019-04-26T08:10:14.799Z,13.80
2019-04-26T08:12:43.856Z,14.00
2019-04-26T08:15:24.824Z,14.20
2019-04-26T08:17:57.853Z,14.20
2019-04-26T08:20:34.079Z,14.30
2019-04-26T08:23:16.067Z,14.50
2019-04-26T08:25:39.046Z,14.50
2019-04-26T08:28:08.408Z,14.40
2019-04-26T08:30:46.223Z,14.40
2019-04-26T08:33:14.691Z,14.50
2019-04-26T08:35:49.005Z,14.70
2019-04-26T08:38:22.412Z,14.80
2019-04-26T08:40:48.059Z,14.90
2019-04-26T08:43:34.683Z,15.10
2019-04-26T08:46:12.965Z,15.10
2019-04-26T08:48:53.804Z,14.90
2019-04-26T08:51:23.699Z,15.00
2019-04-26T08:53:53.628Z,15.00
2019-04-26T08:56:28.111Z,15.20
2019-04-26T08:59:00.202Z,15.40
2019-04-26T09:01:36.504Z,15.60
2019-04-26T09:04:09.838Z,15.80
2019-04-26T09:06:46.412Z,15.80
2019-04-26T09:09:18.224Z,15.80
2019-04-26T09:11:59.069Z,15.90
2019-04-26T09:14:19.235Z,15.70
2019-04-26T09:16:50.485Z,15.80
2019-04-26T09:19:19.227Z,16.00
2019-04-26T09:21:51.825Z,16.30
2019-04-26T09:24:33.550Z,16.60
2019-04-26T09:27:13.076Z,16.70
2019-04-26T09:29:52.100Z,16.80
2019-04-26T09:32:24.121Z,17.00
2019-04-26T09:34:55.463Z,17.30
2019-04-26T09:37:25.476Z,17.40
2019-04-26T09:39:54.402Z,17.30
2019-04-26T09:42:28.906Z,17.00
2019-04-26T09:45:13.652Z,16.70
2019-04-26T09:47:56.469Z,16.60
2019-04-26T09:50:26.800Z,16.80
2019-04-26T09:52:58.323Z,17.10
2019-04-26T09:55:35.269Z,17.10
2019-04-26T09:57:59.813Z,17.30
2019-04-26T10:00:30.343Z,17.30
2019-04-26T10:03:05.398Z,17.60
2019-04-26T10:05:32.691Z,17.70
2019-04-26T10:08:02.454Z,17.60
2019-04-26T10:10:35.259Z,17.80
2019-04-26T10:13:14.913Z,18.10
2019-04-26T10:15:47.052Z,18.10
2019-04-26T10:18:20.481Z,18.20
2019-04-26T10:20:50.856Z,18.10
2019-04-26T10:23:20.731Z,18.30
2019-04-26T10:25:52.008Z,18.30
2019-04-26T10:28:20.884Z,18.30
2019-04-26T10:30:49.728Z,18.50
2019-04-26T10:33:18.799Z,18.50
2019-04-26T10:35:47.602Z,18.60
2019-04-26T10:38:23.836Z,18.30
2019-04-26T10:40:51.620Z,18.20
2019-04-26T10:43:20.348Z,18.60
2019-04-26T10:45:53.491Z,19.00
2019-04-26T10:48:19.866Z,19.20
2019-04-26T10:50:48.904Z,18.80
2019-04-26T10:53:19.264Z,18.60
2019-04-26T10:56:04.775Z,18.30
2019-04-26T10:58:36.184Z,18.00
2019-04-26T11:01:08.483Z,17.70
2019-04-26T11:03:37.199Z,17.60
2019-04-26T11:06:05.958Z,17.30
2019-04-26T11:08:34.804Z,17.10
2019-04-26T11:11:03.623Z,17.10
2019-04-26T11:13:35.619Z,17.10
2019-04-26T11:16:07.069Z,17.10
2019-04-26T11:18:35.695Z,17.10
2019-04-26T11:21:05.981Z,17.10
2019-04-26T11:23:34.915Z,16.90
2019-04-26T11:26:03.641Z,16.80
2019-04-26T11:28:32.734Z,16.70
2019-04-26T11:31:01.587Z,16.60
2019-04-26T11:33:30.386Z,16.70
2019-04-26T11:35:59.397Z,16.60
2019-04-26T11:38:31.340Z,16.50
2019-04-26T11:41:06.301Z,16.30
2019-04-26T11:43:31.061Z,16.30
2019-04-26T11:46:04.412Z,16.30
2019-04-26T11:48:30.677Z,16.30
2019-04-26T11:50:59.810Z,16.40
2019-04-26T11:53:28.531Z,16.40
2019-04-26T11:56:00.197Z,16.50
2019-04-26T11:58:28.945Z,16.70
2019-04-26T12:01:00.315Z,16.90
2019-04-26T12:03:29.338Z,16.80
2019-04-26T12:06:15.130Z,16.80
2019-04-26T12:08:47.560Z,16.80
2019-04-26T12:11:18.591Z,16.90
2019-04-26T12:13:51.157Z,17.00
2019-04-26T12:16:22.783Z,17.30
2019-04-26T12:18:51.523Z,17.30
2019-04-26T12:21:21.500Z,17.10
2019-04-26T12:23:51.396Z,17.20
2019-04-26T12:26:21.648Z,17.20
2019-04-26T12:28:51.291Z,17.70
2019-04-26T12:31:20.009Z,18.10
2019-04-26T12:33:52.479Z,18.50
2019-04-26T12:36:22.463Z,18.90
2019-04-26T12:38:51.187Z,19.10
2019-04-26T12:41:25.293Z,19.00
2019-04-26T12:43:54.564Z,18.60
2019-04-26T12:46:27.279Z,18.30
2019-04-26T12:48:56.935Z,18.60
2019-04-26T12:51:28.423Z,18.50
2019-04-26T12:53:57.349Z,18.50
2019-04-26T12:56:26.562Z,18.60
2019-04-26T12:58:56.530Z,18.60
2019-04-26T13:01:25.228Z,18.40
2019-04-26T13:04:06.919Z,18.60
2019-04-26T13:06:37.809Z,18.40
2019-04-26T13:09:16.417Z,18.50
2019-04-26T13:11:58.802Z,18.40
2019-04-26T13:14:38.643Z,18.20
2019-04-26T13:17:24.099Z,18.00
2019-04-26T13:19:55.456Z,17.90
2019-04-26T13:22:24.519Z,17.80
2019-04-26T13:24:53.468Z,17.80
2019-04-26T13:27:23.415Z,18.00
2019-04-26T13:30:01.666Z,17.80
2019-04-26T13:32:24.652Z,17.80
2019-04-26T13:34:53.577Z,17.90
2019-04-26T13:37:22.420Z,18.30
2019-04-26T13:39:55.270Z,18.20
2019-04-26T13:42:23.674Z,18.30
2019-04-26T13:45:03.336Z,18.50
2019-04-26T13:47:37.572Z,19.00
2019-04-26T13:50:18.098Z,19.40
2019-04-26T13:52:47.305Z,19.70
2019-04-26T13:55:18.340Z,19.90
2019-04-26T13:57:47.399Z,20.20
2019-04-26T14:00:21.888Z,20.30
2019-04-26T14:02:51.068Z,20.70
2019-04-26T14:05:19.771Z,20.80
2019-04-26T14:07:49.287Z,21.00
2019-04-26T14:10:19.435Z,20.90
2019-04-26T14:12:49.925Z,20.60
2019-04-26T14:15:19.687Z,20.80
2019-04-26T14:17:48.691Z,21.10
2019-04-26T14:20:19.215Z,21.00
2019-04-26T14:22:50.345Z,21.10
2019-04-26T14:25:23.532Z,21.60
2019-04-26T14:27:54.386Z,21.20
2019-04-26T14:30:23.193Z,20.70
2019-04-26T14:32:53.106Z,20.40
2019-04-26T14:35:23.341Z,20.70
2019-04-26T14:37:53.308Z,20.70
2019-04-26T14:40:22.314Z,21.00
2019-04-26T14:43:05.730Z,20.90
2019-04-26T14:45:23.596Z,20.60
2019-04-26T14:47:52.282Z,20.10
2019-04-26T14:50:21.002Z,20.30
2019-04-26T14:52:49.814Z,20.50
2019-04-26T14:55:21.241Z,20.40
2019-04-26T14:57:51.260Z,20.30
2019-04-26T15:00:22.324Z,20.50
2019-04-26T15:02:55.991Z,20.80
2019-04-26T15:05:33.220Z,20.60
2019-04-26T15:08:03.907Z,20.30
2019-04-26T15:10:43.824Z,20.10
2019-04-26T15:13:17.127Z,19.80
2019-04-26T15:15:36.694Z,19.60
2019-04-26T15:18:05.439Z,19.70
2019-04-26T15:20:34.451Z,19.90
2019-04-26T15:23:03.404Z,19.60
2019-04-26T15:25:33.626Z,20.20
2019-04-26T15:28:06.791Z,20.60
2019-04-26T15:30:43.043Z,20.70
2019-04-26T15:33:09.031Z,21.00
2019-04-26T15:35:37.422Z,20.60
2019-04-26T15:38:06.771Z,20.70
2019-04-26T15:40:48.226Z,20.90
2019-04-26T15:43:24.539Z,20.90
2019-04-26T15:45:58.371Z,20.90
2019-04-26T15:48:34.661Z,21.10
2019-04-26T15:51:03.717Z,21.10
2019-04-26T15:53:33.177Z,21.40
2019-04-26T15:56:02.594Z,21.40
2019-04-26T15:58:32.608Z,21.40
2019-04-26T16:01:02.807Z,21.60
2019-04-26T16:03:32.759Z,21.90
2019-04-26T16:06:07.015Z,22.00
2019-04-26T16:08:42.624Z,22.20
2019-04-26T16:11:07.322Z,22.30
2019-04-26T16:13:52.146Z,22.50
2019-04-26T16:16:32.972Z,22.70
2019-04-26T16:19:00.493Z,22.80
2019-04-26T16:21:38.325Z,22.80
2019-04-26T16:24:07.174Z,22.60
2019-04-26T16:26:35.986Z,22.40
2019-04-26T16:29:06.524Z,22.00
2019-04-26T16:31:42.074Z,22.00
2019-04-26T16:34:14.739Z,22.20
2019-04-26T16:36:45.237Z,21.90
2019-04-26T16:39:14.350Z,21.80
2019-04-26T16:41:43.141Z,21.70
2019-04-26T16:44:13.032Z,21.40
2019-04-26T16:46:43.878Z,21.20
2019-04-26T16:49:14.604Z,20.90
2019-04-26T16:51:43.741Z,20.60
2019-04-26T16:54:20.972Z,20.30
2019-04-26T16:56:43.903Z,20.00
2019-04-26T16:59:22.373Z,19.80
2019-04-26T17:02:01.452Z,19.60
2019-04-26T17:04:32.065Z,19.40
2019-04-26T17:07:01.701Z,19.30
2019-04-26T17:09:29.750Z,19.20
2019-04-26T17:12:10.598Z,19.10
2019-04-26T17:14:40.482Z,19.00
2019-04-26T17:17:13.957Z,18.80
2019-04-26T17:19:41.013Z,18.60
2019-04-26T17:22:23.214Z,18.50
2019-04-26T17:24:56.887Z,18.30
2019-04-26T17:27:26.631Z,18.30
2019-04-26T17:29:58.944Z,18.10
2019-04-26T17:32:27.933Z,18.00
2019-04-26T17:35:08.649Z,17.90
2019-04-26T17:37:37.323Z,17.80
2019-04-26T17:40:06.264Z,17.70
2019-04-26T17:42:37.126Z,17.60
2019-04-26T17:45:10.907Z,17.50
2019-04-26T17:47:41.867Z,17.50
2019-04-26T17:50:10.994Z,17.40
2019-04-26T17:52:41.813Z,17.30
2019-04-26T17:55:14.916Z,17.20
2019-04-26T17:57:48.379Z,17.00
2019-04-26T18:00:22.329Z,17.00
2019-04-26T18:02:48.627Z,16.90
2019-04-26T18:05:19.095Z,17.00
2019-04-26T18:07:57.924Z,16.80
2019-04-26T18:10:20.808Z,16.80
2019-04-26T18:12:50.768Z,16.80
2019-04-26T18:15:19.927Z,16.70
2019-04-26T18:17:53.702Z,16.60
2019-04-26T18:20:24.026Z,16.50
2019-04-26T18:22:56.511Z,16.60
2019-04-26T18:25:25.270Z,16.50
2019-04-26T18:27:56.157Z,16.50
2019-04-26T18:30:26.618Z,16.60
2019-04-26T18:32:55.471Z,16.50
2019-04-26T18:35:24.211Z,16.40
2019-04-26T18:37:53.715Z,16.40
2019-04-26T18:40:23.203Z,16.40
2019-04-26T18:42:55.078Z,16.40
2019-04-26T18:45:28.834Z,16.40
2019-04-26T18:48:01.478Z,16.30
2019-04-26T18:50:28.417Z,16.30
2019-04-26T18:53:19.631Z,16.30
2019-04-26T18:55:50.915Z,16.30
2019-04-26T18:58:19.696Z,16.30
2019-04-26T19:00:48.854Z,16.20
2019-04-26T19:03:18.979Z,16.10
2019-04-26T19:05:48.224Z,16.20
2019-04-26T19:08:20.831Z,16.10
2019-04-26T19:11:00.551Z,16.10
2019-04-26T19:13:26.676Z,16.10
2019-04-26T19:16:01.231Z,16.00
2019-04-26T19:18:51.639Z,16.00
2019-04-26T19:21:40.806Z,16.00
2019-04-26T19:24:17.615Z,16.00
2019-04-26T19:26:49.586Z,16.00
2019-04-26T19:29:18.198Z,16.00
2019-04-26T19:32:07.519Z,16.00
2019-04-26T19:34:36.274Z,16.00
2019-04-26T19:37:07.119Z,16.20
2019-04-26T19:39:37.644Z,16.20
2019-04-26T19:42:06.469Z,16.40
2019-04-26T19:44:36.314Z,16.50
2019-04-26T19:47:12.299Z,16.60
2019-04-26T19:49:52.436Z,16.70
2019-04-26T19:52:39.386Z,16.70
2019-04-26T19:55:07.331Z,16.70
2019-04-26T19:57:41.046Z,16.80
2019-04-26T20:00:10.821Z,16.60
2019-04-26T20:02:42.048Z,16.60
2019-04-26T20:05:11.813Z,16.50
2019-04-26T20:07:41.985Z,16.40
2019-04-26T20:10:10.774Z,16.30
2019-04-26T20:12:41.512Z,16.30
2019-04-26T20:15:25.502Z,16.20
2019-04-26T20:17:43.634Z,16.20
2019-04-26T20:20:19.347Z,16.20
2019-04-26T20:22:43.016Z,16.10
2019-04-26T20:25:11.987Z,16.10
2019-04-26T20:27:42.803Z,16.00
2019-04-26T20:30:13.096Z,16.00
2019-04-26T20:32:47.487Z,16.00
2019-04-26T20:35:26.655Z,15.90
2019-04-26T20:37:56.299Z,15.90
2019-04-26T20:40:25.821Z,15.80
2019-04-26T20:43:02.138Z,15.80
2019-04-26T20:45:38.688Z,15.80
2019-04-26T20:47:59.323Z,15.80
2019-04-26T20:50:28.573Z,15.70
2019-04-26T20:53:00.564Z,15.70
2019-04-26T20:55:32.341Z,15.70
2019-04-26T20:58:07.074Z,15.70
2019-04-26T21:00:31.658Z,15.70
2019-04-26T21:03:05.926Z,15.70
2019-04-26T21:05:45.862Z,15.70
2019-04-26T21:08:05.493Z,15.70
2019-04-26T21:10:35.899Z,16.00
2019-04-26T21:13:05.250Z,16.10
2019-04-26T21:15:36.010Z,16.10
2019-04-26T21:18:05.840Z,16.00
2019-04-26T21:20:36.561Z,15.90
2019-04-26T21:23:06.083Z,15.90
2019-04-26T21:25:36.455Z,15.80
2019-04-26T21:28:15.977Z,15.80
2019-04-26T21:30:51.482Z,15.70
2019-04-26T21:33:24.671Z,15.60
2019-04-26T21:35:57.648Z,15.60
2019-04-26T21:38:30.514Z,15.60
2019-04-26T21:41:11.432Z,15.60
2019-04-26T21:43:38.396Z,15.50
2019-04-26T21:46:18.634Z,15.50
2019-04-26T21:48:44.466Z,15.50
2019-04-26T21:51:14.443Z,15.40
2019-04-26T21:53:45.140Z,15.40
2019-04-26T21:56:14.839Z,15.30
2019-04-26T21:58:46.024Z,15.30
2019-04-26T22:01:19.620Z,15.30
2019-04-26T22:03:54.498Z,15.20
2019-04-26T22:06:24.220Z,15.20
2019-04-26T22:08:55.678Z,15.20
2019-04-26T22:11:25.458Z,15.10
2019-04-26T22:14:03.044Z,15.10
2019-04-26T22:16:37.544Z,15.10
2019-04-26T22:19:23.915Z,15.00
2019-04-26T22:21:59.366Z,15.10
2019-04-26T22:24:30.616Z,15.00
2019-04-26T22:27:01.092Z,15.00
2019-04-26T22:29:29.983Z,15.00
2019-04-26T22:31:58.934Z,14.90
2019-04-26T22:34:27.664Z,14.90
2019-04-26T22:37:01.305Z,14.90
2019-04-26T22:39:34.007Z,14.80
2019-04-26T22:42:02.808Z,14.80
2019-04-26T22:44:48.324Z,14.70
2019-04-26T22:47:23.910Z,14.70
2019-04-26T22:49:52.503Z,14.60
2019-04-26T22:52:23.020Z,14.60
2019-04-26T22:54:53.728Z,14.60
2019-04-26T22:57:23.226Z,14.60
2019-04-26T22:59:53.534Z,14.60
2019-04-26T23:02:27.634Z,14.70
2019-04-26T23:04:56.025Z,14.70
2019-04-26T23:07:26.207Z,14.60
2019-04-26T23:09:55.495Z,14.60
2019-04-26T23:12:33.707Z,14.60
2019-04-26T23:15:13.427Z,14.60
2019-04-26T23:17:46.623Z,14.60
2019-04-26T23:20:20.100Z,14.50
2019-04-26T23:22:49.270Z,14.50
2019-04-26T23:25:18.420Z,14.50
2019-04-26T23:27:50.462Z,14.40
2019-04-26T23:30:19.531Z,14.50
2019-04-26T23:32:52.154Z,14.40
2019-04-26T23:35:19.145Z,14.40
2019-04-26T23:37:49.491Z,14.40
2019-04-26T23:40:20.647Z,14.30
2019-04-26T23:42:51.596Z,14.40
2019-04-26T23:45:20.404Z,14.20
2019-04-26T23:47:56.009Z,14.20
2019-04-26T23:50:30.509Z,14.30
2019-04-26T23:53:05.482Z,14.20
2019-04-26T23:55:38.072Z,14.20
2019-04-26T23:58:10.674Z,14.20
